Time;durP1;ratioP1;P1;durP2;ratioP2;P2;SDS_P1;SDS_P2;PMS_P1;PMS_P2;Temp;Humidity;BMP_temperature;BMP_pressure;BME280_temperature;BME280_humidity;BME280_pressure;Samples;Min_cycle;Max_cycle;Signal;HPM_P1;HPM_P2
2021/10/31 00:01:35;;;;;;;7.50;6.07;;;;;;;;;;5039991;28;20482;-70
2021/10/31 00:04:03;;;;;;;11.97;5.07;;;;;;;;;;5039904;28;20470;-71
2021/10/31 00:06:30;;;;;;;7.87;5.57;;;;;;;;;;5040281;28;20461;-71
2021/10/31 00:09:06;;;;;;;10.43;5.90;;;;;;;;;;5040788;28;20463;-71
2021/10/31 00:11:35;;;;;;;10.63;5.70;;;;;;;;;;5041055;28;21028;-71
2021/10/31 00:14:08;;;;;;;10.73;6.37;;;;;;;;;;5040930;28;20971;-71
2021/10/31 00:16:37;;;;;;;9.33;6.47;;;;;;;;;;5040836;28;20454;-71
2021/10/31 00:19:20;;;;;;;5.87;4.47;;;;;;;;;;5040488;28;20462;-71
2021/10/31 00:21:48;;;;;;;8.60;5.17;;;;;;;;;;5040382;28;20516;-70
2021/10/31 00:24:16;;;;;;;7.93;4.10;;;;;;;;;;5038280;28;20482;-71
2021/10/31 00:26:54;;;;;;;7.70;5.07;;;;;;;;;;5039976;28;20854;-71
2021/10/31 00:29:33;;;;;;;9.50;5.90;;;;;;;;;;5040985;28;20480;-72
2021/10/31 00:32:02;;;;;;;10.00;6.40;;;;;;;;;;5040038;28;20468;-70
2021/10/31 00:34:30;;;;;;;10.30;5.60;;;;;;;;;;5039827;28;20874;-71
2021/10/31 00:36:58;;;;;;;11.40;6.60;;;;;;;;;;5039209;28;20465;-71
2021/10/31 00:39:26;;;;;;;7.87;6.00;;;;;;;;;;5040095;28;20736;-71
2021/10/31 00:41:56;;;;;;;10.60;6.00;;;;;;;;;;5039487;28;20924;-72
2021/10/31 00:44:24;;;;;;;7.70;5.10;;;;;;;;;;5038931;28;20473;-71
2021/10/31 00:46:52;;;;;;;7.60;5.50;;;;;;;;;;5037925;28;20524;-71
2021/10/31 00:49:27;;;;;;;11.00;6.50;;;;;;;;;;5039514;28;20454;-71
2021/10/31 00:51:59;;;;;;;7.60;5.90;;;;;;;;;;5039699;28;20458;-72
2021/10/31 00:54:26;;;;;;;9.20;5.27;;;;;;;;;;5037424;28;20528;-72
2021/10/31 00:56:58;;;;;;;11.17;5.40;;;;;;;;;;5031971;28;20462;-72
2021/10/31 00:59:28;;;;;;;8.23;5.60;;;;;;;;;;5039526;28;20462;-71
2021/10/31 01:01:57;;;;;;;8.00;5.90;;;;;;;;;;5038967;28;20762;-71
2021/10/31 01:04:26;;;;;;;7.80;5.57;;;;;;;;;;5039529;28;20537;-70
2021/10/31 01:07:17;;;;;;;8.00;5.30;;;;;;;;;;5038842;28;20476;-70
2021/10/31 01:09:52;;;;;;;11.33;5.93;;;;;;;;;;5038782;28;20453;-70
2021/10/31 01:12:33;;;;;;;7.73;5.07;;;;;;;;;;5038456;28;20548;-70
2021/10/31 01:15:24;;;;;;;8.33;6.43;;;;;;;;;;5038261;28;20469;-70
2021/10/31 01:18:12;;;;;;;9.10;6.43;;;;;;;;;;5039280;28;20509;-71
2021/10/31 01:20:46;;;;;;;7.43;5.83;;;;;;;;;;5040179;28;20816;-69
2021/10/31 01:23:34;;;;;;;7.97;6.23;;;;;;;;;;5037582;28;20490;-70
2021/10/31 01:26:19;;;;;;;7.10;5.83;;;;;;;;;;5039955;28;20479;-70
2021/10/31 01:29:07;;;;;;;9.70;5.80;;;;;;;;;;5038893;28;20477;-70
2021/10/31 01:31:52;;;;;;;7.53;6.50;;;;;;;;;;5038232;28;20460;-70
2021/10/31 01:34:22;;;;;;;8.83;7.57;;;;;;;;;;5037708;28;20466;-71
2021/10/31 01:36:56;;;;;;;6.93;4.80;;;;;;;;;;5038811;28;20541;-72
2021/10/31 01:39:26;;;;;;;8.50;4.87;;;;;;;;;;5038731;28;20814;-71
2021/10/31 01:42:02;;;;;;;9.90;5.90;;;;;;;;;;5024119;28;20542;-71
2021/10/31 01:44:38;;;;;;;6.90;5.27;;;;;;;;;;5018477;28;20734;-71
2021/10/31 01:47:10;;;;;;;7.93;6.70;;;;;;;;;;5018274;28;20470;-71
2021/10/31 01:49:42;;;;;;;7.43;5.10;;;;;;;;;;5017897;28;20954;-71
2021/10/31 01:52:13;;;;;;;9.63;6.73;;;;;;;;;;5018964;28;20470;-71
2021/10/31 01:54:45;;;;;;;7.10;5.00;;;;;;;;;;5018920;28;20459;-71
2021/10/31 01:57:14;;;;;;;10.67;6.17;;;;;;;;;;5017710;28;20490;-71
2021/10/31 01:59:44;;;;;;;9.43;7.23;;;;;;;;;;5018102;28;20483;-71
2021/10/31 02:02:12;;;;;;;9.50;6.70;;;;;;;;;;5018320;28;20483;-71
2021/10/31 02:04:40;;;;;;;13.53;8.60;;;;;;;;;;5019270;28;20703;-71
2021/10/31 02:07:09;;;;;;;8.50;6.83;;;;;;;;;;5034744;28;20740;-71
2021/10/31 02:09:36;;;;;;;8.83;6.20;;;;;;;;;;5037747;28;20455;-71
2021/10/31 02:12:05;;;;;;;9.20;6.83;;;;;;;;;;5038110;28;20469;-71
2021/10/31 02:14:34;;;;;;;12.27;8.13;;;;;;;;;;5037880;28;20500;-71
2021/10/31 02:17:05;;;;;;;7.93;6.07;;;;;;;;;;5038371;28;20485;-72
2021/10/31 02:19:37;;;;;;;10.73;7.67;;;;;;;;;;5037031;28;20511;-71
2021/10/31 02:22:09;;;;;;;10.10;7.83;;;;;;;;;;5038007;28;20486;-71
2021/10/31 02:24:39;;;;;;;9.53;6.97;;;;;;;;;;5037589;28;20461;-71
2021/10/31 02:27:13;;;;;;;8.10;6.83;;;;;;;;;;5037946;28;20458;-71
2021/10/31 02:29:50;;;;;;;10.07;7.40;;;;;;;;;;5038098;28;20469;-72
2021/10/31 02:32:26;;;;;;;7.73;5.67;;;;;;;;;;5038032;28;20485;-71
2021/10/31 02:34:55;;;;;;;10.40;6.83;;;;;;;;;;5037728;28;20458;-72
2021/10/31 02:37:22;;;;;;;9.97;7.73;;;;;;;;;;5036859;28;20453;-72
2021/10/31 02:39:52;;;;;;;8.93;6.20;;;;;;;;;;5037590;28;20469;-71
2021/10/31 02:42:20;;;;;;;9.63;6.83;;;;;;;;;;5037304;28;20581;-71
2021/10/31 02:44:48;;;;;;;10.00;7.43;;;;;;;;;;5037649;28;20527;-71
2021/10/31 02:47:21;;;;;;;8.20;6.53;;;;;;;;;;5037535;28;20458;-71
2021/10/31 02:49:48;;;;;;;9.80;7.60;;;;;;;;;;5036953;28;20960;-71
2021/10/31 02:52:19;;;;;;;9.00;6.60;;;;;;;;;;5037020;28;20528;-71
2021/10/31 02:54:52;;;;;;;10.50;7.27;;;;;;;;;;5037162;28;20555;-71
2021/10/31 02:57:25;;;;;;;12.20;6.57;;;;;;;;;;5036767;28;20494;-72
2021/10/31 02:59:56;;;;;;;9.63;6.67;;;;;;;;;;5036735;28;20486;-71
2021/10/31 03:02:23;;;;;;;11.47;7.07;;;;;;;;;;5036546;28;20478;-71
2021/10/31 03:04:52;;;;;;;9.00;6.87;;;;;;;;;;5037458;28;20866;-71
2021/10/31 03:07:20;;;;;;;7.77;6.30;;;;;;;;;;5037255;28;20462;-71
2021/10/31 03:09:48;;;;;;;7.90;7.10;;;;;;;;;;5036878;28;20454;-71
2021/10/31 03:12:16;;;;;;;9.90;7.77;;;;;;;;;;5036570;28;20844;-71
2021/10/31 03:14:45;;;;;;;9.00;6.30;;;;;;;;;;5036638;28;20517;-70
2021/10/31 03:17:13;;;;;;;11.97;7.67;;;;;;;;;;5036745;28;20873;-71
2021/10/31 03:19:40;;;;;;;8.87;6.87;;;;;;;;;;5036671;28;20468;-71
2021/10/31 03:22:09;;;;;;;10.07;7.53;;;;;;;;;;5034974;28;20458;-72
2021/10/31 03:24:36;;;;;;;9.43;6.53;;;;;;;;;;5016969;28;20487;-71
2021/10/31 03:27:05;;;;;;;13.30;7.53;;;;;;;;;;5017326;28;20457;-71
2021/10/31 03:29:33;;;;;;;12.63;8.80;;;;;;;;;;5016674;28;20521;-71
2021/10/31 03:32:02;;;;;;;9.20;7.43;;;;;;;;;;5017295;28;20756;-71
2021/10/31 03:34:30;;;;;;;10.33;7.23;;;;;;;;;;5016337;28;20458;-71
2021/10/31 03:36:57;;;;;;;9.60;7.53;;;;;;;;;;5016911;28;20465;-71
2021/10/31 03:39:25;;;;;;;11.33;7.30;;;;;;;;;;5017278;28;20456;-71
2021/10/31 03:41:52;;;;;;;7.30;5.60;;;;;;;;;;5016969;28;20459;-71
2021/10/31 03:44:21;;;;;;;9.07;6.40;;;;;;;;;;5016629;28;20501;-71
2021/10/31 03:46:49;;;;;;;8.53;6.47;;;;;;;;;;5017298;28;20550;-71
2021/10/31 03:49:18;;;;;;;9.40;6.80;;;;;;;;;;5017332;28;20455;-71
2021/10/31 03:51:46;;;;;;;11.00;8.10;;;;;;;;;;5016988;28;20458;-71
2021/10/31 03:54:14;;;;;;;11.60;7.30;;;;;;;;;;5016709;28;20870;-71
2021/10/31 03:56:42;;;;;;;11.20;8.43;;;;;;;;;;5017480;28;20474;-71
2021/10/31 03:59:09;;;;;;;9.30;7.03;;;;;;;;;;5016396;28;20467;-71
2021/10/31 04:01:37;;;;;;;8.40;7.50;;;;;;;;;;5017549;28;20463;-71
2021/10/31 04:04:05;;;;;;;9.83;8.53;;;;;;;;;;5017649;28;20499;-71
2021/10/31 04:06:34;;;;;;;9.80;6.90;;;;;;;;;;5016845;28;20935;-71
2021/10/31 04:09:02;;;;;;;9.30;7.50;;;;;;;;;;5016961;28;20471;-71
2021/10/31 04:11:29;;;;;;;13.23;11.87;;;;;;;;;;5016888;28;20459;-70
2021/10/31 04:13:57;;;;;;;6.53;5.90;;;;;;;;;;5017658;28;20459;-71
2021/10/31 04:16:25;;;;;;;8.63;6.77;;;;;;;;;;5017208;28;20455;-71
2021/10/31 04:18:52;;;;;;;7.90;5.87;;;;;;;;;;5016398;28;20463;-71
2021/10/31 04:21:21;;;;;;;8.37;6.47;;;;;;;;;;5017147;28;20720;-70
2021/10/31 04:23:50;;;;;;;9.53;6.60;;;;;;;;;;5019997;28;20546;-71
2021/10/31 04:26:17;;;;;;;9.23;6.07;;;;;;;;;;5020639;28;20499;-70
2021/10/31 04:28:45;;;;;;;9.80;6.50;;;;;;;;;;5020737;28;20865;-70
2021/10/31 04:31:13;;;;;;;8.33;5.93;;;;;;;;;;5021610;28;20926;-71
2021/10/31 04:33:43;;;;;;;8.97;7.17;;;;;;;;;;5038327;28;20458;-72
2021/10/31 04:36:13;;;;;;;8.50;6.87;;;;;;;;;;5040998;28;20458;-71
2021/10/31 04:38:40;;;;;;;8.00;6.03;;;;;;;;;;5040929;28;20880;-70
2021/10/31 04:41:10;;;;;;;8.40;7.53;;;;;;;;;;5039429;28;20493;-70
2021/10/31 04:43:39;;;;;;;10.10;8.10;;;;;;;;;;5038976;28;20475;-70
2021/10/31 04:46:06;;;;;;;8.13;6.83;;;;;;;;;;5040555;28;20474;-71
2021/10/31 04:48:34;;;;;;;14.73;7.47;;;;;;;;;;5041043;28;20465;-70
2021/10/31 04:51:02;;;;;;;10.23;7.60;;;;;;;;;;5040314;28;20528;-70
2021/10/31 04:53:29;;;;;;;9.37;7.10;;;;;;;;;;5040688;28;20492;-70
2021/10/31 04:55:57;;;;;;;10.90;6.43;;;;;;;;;;5040172;28;20533;-70
2021/10/31 04:58:27;;;;;;;9.23;7.13;;;;;;;;;;5040645;28;20463;-70
2021/10/31 05:00:55;;;;;;;13.00;7.03;;;;;;;;;;5040364;28;20906;-71
2021/10/31 05:03:23;;;;;;;9.07;6.80;;;;;;;;;;5039211;28;20584;-70
2021/10/31 05:05:51;;;;;;;11.70;6.87;;;;;;;;;;5040198;28;20469;-70
2021/10/31 05:08:18;;;;;;;11.60;7.43;;;;;;;;;;5039221;28;21119;-70
2021/10/31 05:10:46;;;;;;;9.87;6.40;;;;;;;;;;5039270;28;20461;-72
2021/10/31 05:13:14;;;;;;;9.23;6.57;;;;;;;;;;5038716;28;20494;-71
2021/10/31 05:15:43;;;;;;;9.20;7.47;;;;;;;;;;5039255;28;20486;-70
2021/10/31 05:18:11;;;;;;;7.23;6.37;;;;;;;;;;5039132;28;20466;-71
2021/10/31 05:20:46;;;;;;;9.13;7.20;;;;;;;;;;5039829;28;20462;-70
2021/10/31 05:23:14;;;;;;;8.40;5.43;;;;;;;;;;5038322;28;20477;-71
2021/10/31 05:25:41;;;;;;;13.00;6.63;;;;;;;;;;5039176;28;20550;-71
2021/10/31 05:28:11;;;;;;;7.63;6.37;;;;;;;;;;5038947;28;20901;-71
2021/10/31 05:30:39;;;;;;;6.27;5.67;;;;;;;;;;5037915;28;20459;-71
2021/10/31 05:33:08;;;;;;;14.00;7.23;;;;;;;;;;5039205;28;20500;-71
2021/10/31 05:35:35;;;;;;;7.30;6.33;;;;;;;;;;5038796;28;20733;-70
2021/10/31 05:38:05;;;;;;;7.97;5.77;;;;;;;;;;5039141;28;20463;-71
2021/10/31 05:40:33;;;;;;;8.23;6.23;;;;;;;;;;5039038;28;20450;-71
2021/10/31 05:43:00;;;;;;;9.10;6.00;;;;;;;;;;5038180;28;20770;-71
2021/10/31 05:45:29;;;;;;;9.60;6.27;;;;;;;;;;5039661;28;20454;-71
2021/10/31 05:47:56;;;;;;;9.30;5.67;;;;;;;;;;5038669;28;20541;-71
2021/10/31 05:50:26;;;;;;;9.00;5.80;;;;;;;;;;5038951;28;20450;-71
2021/10/31 05:52:53;;;;;;;9.43;6.83;;;;;;;;;;5039122;28;20462;-71
2021/10/31 05:55:21;;;;;;;10.40;7.60;;;;;;;;;;5038823;28;20446;-71
2021/10/31 05:57:49;;;;;;;9.30;6.53;;;;;;;;;;5038283;28;20849;-71
2021/10/31 06:00:17;;;;;;;10.83;7.00;;;;;;;;;;5038041;28;20525;-71
2021/10/31 06:02:47;;;;;;;8.20;6.40;;;;;;;;;;5037847;28;20462;-71
2021/10/31 06:05:15;;;;;;;8.27;6.10;;;;;;;;;;5038296;28;20459;-71
2021/10/31 06:07:47;;;;;;;14.20;8.00;;;;;;;;;;5038351;28;20946;-71
2021/10/31 06:10:15;;;;;;;9.93;7.27;;;;;;;;;;5038048;28;20551;-71
2021/10/31 06:12:43;;;;;;;9.00;7.20;;;;;;;;;;5038041;28;20462;-71
2021/10/31 06:15:11;;;;;;;9.17;7.40;;;;;;;;;;5038021;28;20458;-71
2021/10/31 06:17:40;;;;;;;10.73;7.63;;;;;;;;;;5038203;28;20505;-71
2021/10/31 06:20:08;;;;;;;8.30;6.30;;;;;;;;;;5038193;28;20527;-70
2021/10/31 06:22:36;;;;;;;10.60;5.90;;;;;;;;;;5037444;28;20984;-70
2021/10/31 06:25:06;;;;;;;14.03;6.43;;;;;;;;;;5037266;28;20494;-70
2021/10/31 06:27:33;;;;;;;8.43;6.30;;;;;;;;;;5037520;28;20906;-70
2021/10/31 06:30:02;;;;;;;10.50;7.37;;;;;;;;;;5037209;28;20450;-71
2021/10/31 06:32:29;;;;;;;8.13;6.20;;;;;;;;;;5037895;28;20486;-71
2021/10/31 06:34:57;;;;;;;10.00;6.67;;;;;;;;;;5037168;28;20454;-71
2021/10/31 06:37:24;;;;;;;9.90;7.07;;;;;;;;;;5037087;28;20907;-71
2021/10/31 06:39:52;;;;;;;7.87;6.47;;;;;;;;;;5037378;28;20756;-70
2021/10/31 06:42:24;;;;;;;8.77;6.27;;;;;;;;;;5037644;28;20531;-71
2021/10/31 06:44:51;;;;;;;10.67;8.50;;;;;;;;;;5036958;28;20536;-72
2021/10/31 06:47:24;;;;;;;16.33;10.47;;;;;;;;;;5036629;28;20493;-71
2021/10/31 06:49:52;;;;;;;8.30;6.70;;;;;;;;;;5037825;28;20458;-71
2021/10/31 06:52:20;;;;;;;11.30;8.87;;;;;;;;;;5037687;28;20965;-71
2021/10/31 06:54:57;;;;;;;9.67;7.93;;;;;;;;;;5036992;28;21059;-71
2021/10/31 06:57:26;;;;;;;12.90;9.10;;;;;;;;;;5038035;28;20500;-71
2021/10/31 06:59:53;;;;;;;12.97;7.80;;;;;;;;;;5037214;28;20458;-70
2021/10/31 07:02:21;;;;;;;10.07;7.77;;;;;;;;;;5037731;28;20494;-72
2021/10/31 07:04:49;;;;;;;10.70;8.33;;;;;;;;;;5037004;28;20486;-71
2021/10/31 07:07:16;;;;;;;10.90;8.67;;;;;;;;;;5036877;28;20466;-71
2021/10/31 07:09:45;;;;;;;10.53;6.90;;;;;;;;;;5037772;28;20520;-71
2021/10/31 07:12:43;;;;;;;10.23;6.47;;;;;;;;;;5035559;28;20559;-72
2021/10/31 07:15:12;;;;;;;14.00;6.30;;;;;;;;;;5016391;28;20566;-71
2021/10/31 07:17:40;;;;;;;10.90;9.83;;;;;;;;;;5016991;28;20847;-71
2021/10/31 07:20:09;;;;;;;12.10;10.60;;;;;;;;;;5017006;28;20463;-71
2021/10/31 07:22:48;;;;;;;15.93;9.67;;;;;;;;;;5017130;28;20470;-71
2021/10/31 07:25:21;;;;;;;11.93;7.27;;;;;;;;;;5017423;28;20491;-71
2021/10/31 07:27:51;;;;;;;10.97;7.90;;;;;;;;;;5018596;28;20451;-71
2021/10/31 07:30:20;;;;;;;16.07;7.87;;;;;;;;;;5017072;28;20557;-71
2021/10/31 07:32:54;;;;;;;9.73;6.47;;;;;;;;;;5017662;28;20459;-71
2021/10/31 07:35:22;;;;;;;11.60;8.03;;;;;;;;;;5016929;28;20555;-72
2021/10/31 07:37:50;;;;;;;9.10;7.30;;;;;;;;;;5017619;28;20465;-72
2021/10/31 07:40:18;;;;;;;10.60;8.70;;;;;;;;;;5028732;28;20900;-72
2021/10/31 07:42:46;;;;;;;12.30;8.23;;;;;;;;;;5016878;28;20463;-72
2021/10/31 07:45:13;;;;;;;11.40;10.10;;;;;;;;;;5016875;28;21086;-71
2021/10/31 07:47:42;;;;;;;12.40;9.37;;;;;;;;;;5017187;28;20469;-72
2021/10/31 07:50:10;;;;;;;10.50;8.20;;;;;;;;;;5017048;28;21034;-71
2021/10/31 07:52:42;;;;;;;9.60;7.47;;;;;;;;;;5016754;28;20743;-71
2021/10/31 07:55:12;;;;;;;12.57;9.90;;;;;;;;;;5027162;28;20470;-71
2021/10/31 07:57:48;;;;;;;11.47;8.47;;;;;;;;;;5039300;28;20891;-72
2021/10/31 08:00:17;;;;;;;10.97;8.20;;;;;;;;;;5040844;28;20484;-71
2021/10/31 08:02:46;;;;;;;11.60;7.60;;;;;;;;;;5039552;28;20465;-71
2021/10/31 08:05:17;;;;;;;12.93;9.17;;;;;;;;;;5039143;28;20494;-70
2021/10/31 08:07:44;;;;;;;9.73;6.87;;;;;;;;;;5039948;28;20465;-70
2021/10/31 08:10:20;;;;;;;10.27;8.37;;;;;;;;;;5038866;28;20486;-72
2021/10/31 08:12:48;;;;;;;12.30;9.67;;;;;;;;;;5039288;28;20426;-72
2021/10/31 08:15:16;;;;;;;14.93;10.23;;;;;;;;;;5028425;28;20477;-72
2021/10/31 08:17:44;;;;;;;9.53;7.67;;;;;;;;;;5034264;28;20450;-72
2021/10/31 08:20:14;;;;;;;12.60;8.97;;;;;;;;;;5039429;28;20470;-71
2021/10/31 08:22:42;;;;;;;10.67;7.90;;;;;;;;;;5032792;28;20854;-71
2021/10/31 08:25:10;;;;;;;9.80;7.73;;;;;;;;;;5039545;28;20827;-71
2021/10/31 08:27:41;;;;;;;11.90;9.10;;;;;;;;;;5039049;28;20751;-71
2021/10/31 08:30:23;;;;;;;10.63;9.53;;;;;;;;;;5039845;28;20737;-71
2021/10/31 08:32:51;;;;;;;13.90;9.20;;;;;;;;;;5039756;28;20519;-71
2021/10/31 08:35:24;;;;;;;12.00;9.23;;;;;;;;;;5037948;28;20451;-71
2021/10/31 08:37:51;;;;;;;12.23;7.73;;;;;;;;;;5038712;28;20893;-71
2021/10/31 08:40:19;;;;;;;12.00;8.83;;;;;;;;;;5038270;28;20458;-71
2021/10/31 08:42:48;;;;;;;15.40;12.20;;;;;;;;;;5038930;28;20729;-71
2021/10/31 08:45:21;;;;;;;13.63;9.17;;;;;;;;;;5038200;28;20493;-71
2021/10/31 08:50:45;;;;;;;14.53;8.30;;;;;;;;;;5158478;27;20413;-72
2021/10/31 08:53:12;;;;;;;12.00;8.07;;;;;;;;;;5155676;27;20456;-71
2021/10/31 08:55:43;;;;;;;16.23;12.30;;;;;;;;;;5154680;27;20462;-71
2021/10/31 08:58:10;;;;;;;15.10;9.70;;;;;;;;;;5147901;27;20717;-71
2021/10/31 09:00:37;;;;;;;12.30;8.37;;;;;;;;;;5132925;27;20542;-71
2021/10/31 09:03:05;;;;;;;10.80;8.47;;;;;;;;;;5134219;27;20449;-71
2021/10/31 09:05:33;;;;;;;13.10;8.97;;;;;;;;;;5133128;27;20489;-71
2021/10/31 09:08:01;;;;;;;13.47;10.50;;;;;;;;;;5133238;27;20442;-71
2021/10/31 09:10:28;;;;;;;15.70;12.43;;;;;;;;;;5133493;27;20603;-71
2021/10/31 09:12:55;;;;;;;12.97;10.80;;;;;;;;;;5133090;27;20442;-71
2021/10/31 09:15:22;;;;;;;14.97;10.17;;;;;;;;;;5132661;27;20445;-71
2021/10/31 09:17:49;;;;;;;14.30;10.70;;;;;;;;;;5133811;27;20446;-71
2021/10/31 09:20:18;;;;;;;13.80;9.80;;;;;;;;;;5137775;27;20438;-71
2021/10/31 09:22:45;;;;;;;12.63;9.47;;;;;;;;;;5154136;27;20876;-71
2021/10/31 09:25:20;;;;;;;11.77;9.03;;;;;;;;;;5154242;27;20441;-71
2021/10/31 09:27:48;;;;;;;14.50;10.07;;;;;;;;;;5153839;27;20543;-71
2021/10/31 09:30:17;;;;;;;14.57;9.80;;;;;;;;;;5153199;27;20484;-71
2021/10/31 09:32:47;;;;;;;15.03;10.73;;;;;;;;;;5154751;27;20517;-72
2021/10/31 09:35:22;;;;;;;14.57;10.50;;;;;;;;;;5135467;27;20441;-72
2021/10/31 09:37:53;;;;;;;15.10;10.70;;;;;;;;;;5152910;27;20496;-72
2021/10/31 09:40:22;;;;;;;14.93;9.03;;;;;;;;;;5154968;27;20464;-72
2021/10/31 09:42:53;;;;;;;15.47;10.90;;;;;;;;;;5152755;27;20495;-72
2021/10/31 09:45:27;;;;;;;11.73;9.00;;;;;;;;;;5152653;27;20453;-71
2021/10/31 09:47:55;;;;;;;11.80;9.07;;;;;;;;;;5152666;27;20480;-71
2021/10/31 09:50:22;;;;;;;12.93;8.87;;;;;;;;;;5149445;27;20484;-72
2021/10/31 09:52:50;;;;;;;13.67;9.90;;;;;;;;;;5153793;27;20794;-71
2021/10/31 09:55:17;;;;;;;14.00;11.63;;;;;;;;;;5152405;27;20445;-71
2021/10/31 09:58:00;;;;;;;12.47;8.27;;;;;;;;;;5151572;27;20468;-72
2021/10/31 10:00:35;;;;;;;15.37;10.10;;;;;;;;;;5147013;27;20450;-71
2021/10/31 10:03:21;;;;;;;12.20;9.33;;;;;;;;;;5139942;27;20453;-72
2021/10/31 10:05:48;;;;;;;13.13;10.10;;;;;;;;;;5137855;27;20456;-71
2021/10/31 10:08:18;;;;;;;12.00;9.47;;;;;;;;;;5138169;27;20461;-71
2021/10/31 10:10:47;;;;;;;11.93;9.30;;;;;;;;;;5139346;27;20502;-71
2021/10/31 10:13:24;;;;;;;13.60;8.15;;;;;;;;;;4556781;27;16315263;-71
2021/10/31 10:15:52;;;;;;;12.03;9.20;;;;;;;;;;5117817;28;20200;-70
2021/10/31 10:18:29;;;;;;;11.60;8.73;;;;;;;;;;5118170;28;20474;-72
2021/10/31 10:21:16;;;;;;;20.30;10.60;;;;;;;;;;5106648;28;20523;-72
2021/10/31 10:23:48;;;;;;;14.30;8.93;;;;;;;;;;5097930;28;21028;-72
2021/10/31 10:26:24;;;;;;;10.97;9.23;;;;;;;;;;5097978;28;20455;-72
2021/10/31 10:28:57;;;;;;;11.77;10.00;;;;;;;;;;5097616;28;20475;-72
2021/10/31 10:31:27;;;;;;;13.20;9.80;;;;;;;;;;5096897;28;20832;-70
2021/10/31 10:33:59;;;;;;;16.67;9.37;;;;;;;;;;5114683;28;20874;-71
2021/10/31 10:36:30;;;;;;;15.20;11.30;;;;;;;;;;5118233;28;20530;-71
2021/10/31 10:39:01;;;;;;;10.87;8.67;;;;;;;;;;5117234;28;20457;-71
2021/10/31 10:41:47;;;;;;;10.90;8.60;;;;;;;;;;5118215;28;20486;-71
2021/10/31 10:44:28;;;;;;;14.77;10.07;;;;;;;;;;5117907;28;20512;-72
2021/10/31 10:46:58;;;;;;;15.00;9.20;;;;;;;;;;5101547;28;20452;-72
2021/10/31 10:49:26;;;;;;;12.27;9.40;;;;;;;;;;5099030;28;20484;-71
2021/10/31 10:52:10;;;;;;;12.73;9.00;;;;;;;;;;5104182;28;20454;-72
2021/10/31 10:54:39;;;;;;;18.27;10.97;;;;;;;;;;5118954;28;20554;-71
2021/10/31 10:57:08;;;;;;;18.43;11.30;;;;;;;;;;5105156;28;20447;-71
2021/10/31 10:59:40;;;;;;;13.43;9.30;;;;;;;;;;5104359;28;20531;-72
2021/10/31 11:02:10;;;;;;;19.83;12.83;;;;;;;;;;5118991;28;20784;-70
2021/10/31 11:04:38;;;;;;;14.00;9.60;;;;;;;;;;5100854;28;20468;-72
2021/10/31 11:07:27;;;;;;;10.13;8.63;;;;;;;;;;5106153;28;21116;-71
2021/10/31 11:10:08;;;;;;;11.33;7.00;;;;;;;;;;5094262;28;20486;-71
2021/10/31 11:12:37;;;;;;;11.80;9.47;;;;;;;;;;5116547;28;20874;-72
2021/10/31 11:15:08;;;;;;;12.40;9.60;;;;;;;;;;5118193;28;20494;-73
2021/10/31 11:18:10;;;;;;;8.67;6.20;;;;;;;;;;5118251;28;20841;-73
2021/10/31 11:20:41;;;;;;;9.63;7.40;;;;;;;;;;5117504;28;20517;-73
2021/10/31 11:23:14;;;;;;;8.60;7.30;;;;;;;;;;5106673;28;20724;-71
2021/10/31 11:25:46;;;;;;;11.43;8.13;;;;;;;;;;5112680;28;20467;-71
2021/10/31 11:28:20;;;;;;;9.13;6.80;;;;;;;;;;5115132;28;20443;-70
2021/10/31 11:30:51;;;;;;;11.10;7.53;;;;;;;;;;5099061;28;20522;-72
2021/10/31 11:33:19;;;;;;;9.20;6.73;;;;;;;;;;5098288;28;20456;-72
2021/10/31 11:39:04;;;;;;;11.50;8.70;;;;;;;;;;5093256;28;20513;-72
2021/10/31 11:41:34;;;;;;;8.93;6.73;;;;;;;;;;5105617;28;20528;-72
2021/10/31 11:44:20;;;;;;;10.70;7.97;;;;;;;;;;5104602;28;20452;-72
2021/10/31 11:46:59;;;;;;;10.40;7.40;;;;;;;;;;5095873;28;20482;-71
2021/10/31 11:49:30;;;;;;;12.60;8.13;;;;;;;;;;5097368;28;21001;-72
2021/10/31 11:52:09;;;;;;;14.87;10.63;;;;;;;;;;5100811;28;20465;-72
2021/10/31 11:54:38;;;;;;;12.63;9.80;;;;;;;;;;5107647;28;20465;-71
2021/10/31 11:57:25;;;;;;;13.80;8.33;;;;;;;;;;5106928;28;20470;-70
2021/10/31 12:00:09;;;;;;;10.97;7.30;;;;;;;;;;5103425;28;20843;-72
2021/10/31 12:02:58;;;;;;;5.70;4.90;;;;;;;;;;5103381;28;20463;-71
2021/10/31 12:05:36;;;;;;;9.40;6.80;;;;;;;;;;5095850;28;20455;-71
2021/10/31 12:08:04;;;;;;;7.60;6.20;;;;;;;;;;5096233;28;20737;-70
2021/10/31 12:10:34;;;;;;;8.63;6.80;;;;;;;;;;5096603;28;20606;-72
2021/10/31 12:13:16;;;;;;;6.93;5.13;;;;;;;;;;5097210;28;20555;-72
2021/10/31 12:16:00;;;;;;;9.17;8.17;;;;;;;;;;5099465;28;20447;-71
2021/10/31 12:18:48;;;;;;;5.03;4.40;;;;;;;;;;5115888;28;20454;-73
2021/10/31 12:21:24;;;;;;;10.13;5.17;;;;;;;;;;5116291;28;20438;-72
2021/10/31 12:26:55;;;;;;;11.17;5.93;;;;;;;;;;5091148;28;21157;-71
2021/10/31 12:29:25;;;;;;;10.70;5.70;;;;;;;;;;5114798;28;21013;-71
2021/10/31 12:32:00;;;;;;;9.13;6.13;;;;;;;;;;5094811;28;20460;-72
2021/10/31 12:34:37;;;;;;;7.57;5.93;;;;;;;;;;5095688;28;20459;-71
2021/10/31 12:37:30;;;;;;;9.53;6.43;;;;;;;;;;5095890;28;20461;-72
2021/10/31 12:43:06;;;;;;;6.00;5.20;;;;;;;;;;5091439;28;20800;-72
2021/10/31 12:48:27;;;;;;;5.30;4.70;;;;;;;;;;5115448;28;20449;-73
2021/10/31 12:53:43;;;;;;;12.63;6.37;;;;;;;;;;5090779;28;20771;-72
2021/10/31 12:56:13;;;;;;;9.90;4.83;;;;;;;;;;5111097;28;20450;-72
2021/10/31 12:58:41;;;;;;;7.03;4.87;;;;;;;;;;5094495;28;20542;-73
2021/10/31 13:01:18;;;;;;;5.90;4.07;;;;;;;;;;5094210;28;20444;-72
2021/10/31 13:03:48;;;;;;;6.70;5.27;;;;;;;;;;5106683;28;20450;-72
2021/10/31 13:06:18;;;;;;;7.57;5.67;;;;;;;;;;5100705;28;20991;-72
2021/10/31 13:08:56;;;;;;;6.77;4.53;;;;;;;;;;5095446;28;20516;-72
2021/10/31 13:11:35;;;;;;;9.00;5.70;;;;;;;;;;5094526;28;20914;-72
2021/10/31 13:14:06;;;;;;;5.00;3.50;;;;;;;;;;5094813;28;20461;-72
2021/10/31 13:16:34;;;;;;;6.00;3.80;;;;;;;;;;5095498;28;20444;-72
2021/10/31 13:19:05;;;;;;;4.33;3.10;;;;;;;;;;5095775;28;20465;-72
2021/10/31 13:22:00;;;;;;;5.17;3.87;;;;;;;;;;5095357;28;20446;-73
2021/10/31 13:24:30;;;;;;;3.93;3.10;;;;;;;;;;5095583;28;21071;-70
2021/10/31 13:26:58;;;;;;;7.23;5.37;;;;;;;;;;5111976;28;20458;-71
2021/10/31 13:29:39;;;;;;;5.57;3.23;;;;;;;;;;5113253;28;20734;-72
2021/10/31 13:32:13;;;;;;;4.30;3.03;;;;;;;;;;5115938;28;20466;-71
2021/10/31 13:34:47;;;;;;;7.13;4.00;;;;;;;;;;5106961;28;20446;-72
2021/10/31 13:37:17;;;;;;;4.90;4.00;;;;;;;;;;5107866;28;20466;-71
2021/10/31 13:40:05;;;;;;;5.47;4.00;;;;;;;;;;5098888;28;20458;-73
2021/10/31 13:42:35;;;;;;;4.90;4.07;;;;;;;;;;5099272;28;20463;-72
2021/10/31 13:45:05;;;;;;;8.80;6.97;;;;;;;;;;5097835;28;20478;-72
2021/10/31 13:47:51;;;;;;;5.90;3.93;;;;;;;;;;5097869;28;20462;-73
2021/10/31 13:50:24;;;;;;;6.13;4.60;;;;;;;;;;5097434;28;20483;-72
2021/10/31 13:53:08;;;;;;;5.53;4.83;;;;;;;;;;5097181;28;20459;-71
2021/10/31 13:55:38;;;;;;;5.60;3.90;;;;;;;;;;5098404;28;20447;-72
2021/10/31 13:58:10;;;;;;;4.80;3.73;;;;;;;;;;5098762;28;20977;-73
2021/10/31 14:00:47;;;;;;;4.53;4.10;;;;;;;;;;5098483;28;20758;-72
2021/10/31 14:03:21;;;;;;;8.37;4.00;;;;;;;;;;5115399;28;20517;-73
2021/10/31 14:05:55;;;;;;;7.50;4.97;;;;;;;;;;5114238;28;20925;-72
2021/10/31 14:08:30;;;;;;;8.10;4.87;;;;;;;;;;5116789;28;20570;-71
2021/10/31 14:11:21;;;;;;;3.73;3.37;;;;;;;;;;5098194;28;20488;-71
2021/10/31 14:13:50;;;;;;;5.37;4.47;;;;;;;;;;5097970;28;21015;-71
2021/10/31 14:16:19;;;;;;;6.60;4.53;;;;;;;;;;5110690;28;20447;-71
2021/10/31 14:18:53;;;;;;;6.80;5.40;;;;;;;;;;5118054;28;20443;-71
2021/10/31 14:21:33;;;;;;;13.77;5.43;;;;;;;;;;5116980;28;20443;-72
2021/10/31 14:24:12;;;;;;;4.37;3.53;;;;;;;;;;5100930;28;20452;-72
2021/10/31 14:26:48;;;;;;;5.70;5.10;;;;;;;;;;5102039;28;20466;-72
2021/10/31 14:29:23;;;;;;;5.27;4.20;;;;;;;;;;5102372;28;20447;-72
2021/10/31 14:31:52;;;;;;;6.43;5.07;;;;;;;;;;5116607;28;20585;-71
2021/10/31 14:34:23;;;;;;;7.03;4.33;;;;;;;;;;5118791;28;20486;-71
2021/10/31 14:36:55;;;;;;;4.53;3.63;;;;;;;;;;5119295;28;20530;-70
2021/10/31 14:39:41;;;;;;;11.73;3.70;;;;;;;;;;5118447;28;20453;-72
2021/10/31 14:42:32;;;;;;;8.00;4.40;;;;;;;;;;5118202;28;20505;-71
2021/10/31 14:45:03;;;;;;;6.20;2.70;;;;;;;;;;5117730;28;20555;-72
2021/10/31 14:47:53;;;;;;;6.77;5.90;;;;;;;;;;5117729;28;20506;-71
2021/10/31 14:50:25;;;;;;;4.77;4.23;;;;;;;;;;5116612;28;20475;-71
2021/10/31 14:52:54;;;;;;;7.97;5.23;;;;;;;;;;5103816;28;20785;-71
2021/10/31 14:55:25;;;;;;;6.50;4.90;;;;;;;;;;5096856;28;20460;-71
2021/10/31 14:58:04;;;;;;;6.00;4.00;;;;;;;;;;5097616;28;20451;-71
2021/10/31 15:00:37;;;;;;;9.60;6.73;;;;;;;;;;5102470;28;20458;-71
2021/10/31 15:03:08;;;;;;;9.10;6.70;;;;;;;;;;5100135;28;20451;-71
2021/10/31 15:05:49;;;;;;;7.70;5.10;;;;;;;;;;5097315;28;20447;-73
2021/10/31 15:11:02;;;;;;;5.93;4.73;;;;;;;;;;5117211;28;20489;-71
2021/10/31 15:13:32;;;;;;;6.17;5.43;;;;;;;;;;5112038;28;21023;-72
2021/10/31 15:16:01;;;;;;;6.23;5.10;;;;;;;;;;5107471;28;20455;-72
2021/10/31 15:18:30;;;;;;;7.93;5.43;;;;;;;;;;5103266;28;21037;-70
2021/10/31 15:21:01;;;;;;;6.20;5.47;;;;;;;;;;5096947;28;20467;-71
2021/10/31 15:23:29;;;;;;;12.13;8.27;;;;;;;;;;5096641;28;20843;-71